Terminal Aerodrome Forecast
Issued by NWS

Home | Current Version | Previous Version | Text Only | Print | Product List | Glossary On
Versions: 1 2 3 4 5 6 7 8 9 10 11 12 13 14 15 16
178
FTUS42 KJAX 222136 AAB
TAFVQQ
TAF AMD
KVQQ 222136Z 2222/2318 07014G24KT P6SM SCT040
     FM230200 03010KT P6SM SCT025
     FM230600 03009KT P6SM VCSH BKN020
     FM231400 05013G23KT P6SM VCSH BKN025=

USA.gov is the U.S. government's official web portal to all federal, state and local government web resources and services.